Time;durP1;ratioP1;P1;durP2;ratioP2;P2;SDS_P1;SDS_P2;PMS_P1;PMS_P2;Temp;Humidity;BMP_temperature;BMP_pressure;BME280_temperature;BME280_humidity;BME280_pressure;Samples;Min_cycle;Max_cycle;Signal;HPM_P1;HPM_P2
2023/12/03 00:00:07;;;;;;;6.28;3.80;;;3.80;99.90;;;;;;5145341;28;20068;-46
2023/12/03 00:02:33;;;;;;;6.65;3.90;;;3.80;99.90;;;;;;5146146;27;20038;-48
2023/12/03 00:04:59;;;;;;;8.27;4.45;;;3.80;99.90;;;;;;5146247;28;20027;-48
2023/12/03 00:07:24;;;;;;;7.10;3.45;;;3.80;99.90;;;;;;5144872;28;20308;-47
2023/12/03 00:09:50;;;;;;;7.38;3.67;;;3.80;99.90;;;;;;5146509;28;20073;-49
2023/12/03 00:12:16;;;;;;;7.35;4.10;;;3.80;99.90;;;;;;5146319;28;20265;-49
2023/12/03 00:14:41;;;;;;;11.55;4.50;;;3.70;99.90;;;;;;5146310;28;20031;-49
2023/12/03 00:17:07;;;;;;;6.85;4.13;;;3.70;99.90;;;;;;5146406;28;20103;-50
2023/12/03 00:19:33;;;;;;;6.97;4.03;;;3.60;99.90;;;;;;5148586;27;20034;-48
2023/12/03 00:21:59;;;;;;;7.47;4.28;;;3.50;99.90;;;;;;5150305;27;20037;-47
2023/12/03 00:24:25;;;;;;;9.77;4.50;;;3.50;99.90;;;;;;5150114;27;20033;-47
2023/12/03 00:26:50;;;;;;;7.63;4.38;;;3.40;99.90;;;;;;5149061;27;20023;-48
2023/12/03 00:29:16;;;;;;;6.65;3.97;;;3.50;99.90;;;;;;5150066;27;20107;-49
2023/12/03 00:31:42;;;;;;;7.90;4.45;;;3.40;99.90;;;;;;5149560;27;20029;-47
2023/12/03 00:34:07;;;;;;;6.07;4.20;;;3.40;99.90;;;;;;5148633;27;20023;-48
2023/12/03 00:36:33;;;;;;;9.40;4.75;;;3.40;99.90;;;;;;5149805;27;20031;-48
2023/12/03 00:38:59;;;;;;;10.75;5.15;;;3.30;99.90;;;;;;5149732;27;20087;-45
2023/12/03 00:41:24;;;;;;;8.40;4.50;;;3.30;99.90;;;;;;5149378;27;20027;-49
2023/12/03 00:43:50;;;;;;;8.00;4.57;;;3.40;99.90;;;;;;5149538;27;20038;-48
2023/12/03 00:46:19;;;;;;;9.38;5.70;;;3.30;99.90;;;;;;5149713;27;20262;-49
2023/12/03 00:48:45;;;;;;;9.88;4.70;;;3.30;99.90;;;;;;5131634;27;20240;-49
2023/12/03 00:51:12;;;;;;;10.05;4.75;;;3.40;99.90;;;;;;5149853;27;20304;-49
2023/12/03 00:53:38;;;;;;;7.43;4.85;;;3.40;99.90;;;;;;5149740;27;20035;-47
2023/12/03 00:56:04;;;;;;;8.10;4.80;;;3.40;99.90;;;;;;5148574;27;20019;-49
2023/12/03 00:58:30;;;;;;;8.63;4.88;;;3.40;99.90;;;;;;5149413;27;20046;-49
2023/12/03 01:00:55;;;;;;;11.23;5.13;;;3.40;99.90;;;;;;5149487;27;20057;-49
2023/12/03 01:03:21;;;;;;;7.80;4.32;;;3.40;99.90;;;;;;5149549;27;20023;-48
2023/12/03 01:05:47;;;;;;;9.70;4.57;;;3.40;99.90;;;;;;5148356;27;20030;-49
2023/12/03 01:08:12;;;;;;;6.93;3.78;;;3.40;99.90;;;;;;5149103;27;20039;-48
2023/12/03 01:10:38;;;;;;;6.78;4.03;;;3.50;99.90;;;;;;5148838;27;20031;-46
2023/12/03 01:13:03;;;;;;;7.40;4.65;;;3.50;99.90;;;;;;5149411;27;20023;-46
2023/12/03 01:15:29;;;;;;;10.35;4.43;;;3.60;99.90;;;;;;5149277;27;20039;-46
2023/12/03 01:17:55;;;;;;;7.13;4.03;;;3.60;99.90;;;;;;5149396;27;20022;-46
2023/12/03 01:20:20;;;;;;;7.53;3.75;;;3.60;99.90;;;;;;5148490;27;20086;-46
2023/12/03 01:22:46;;;;;;;7.10;3.65;;;3.60;99.90;;;;;;5149252;27;20031;-46
2023/12/03 01:25:12;;;;;;;6.95;4.10;;;3.50;99.90;;;;;;5149128;27;20057;-45
2023/12/03 01:27:37;;;;;;;5.68;3.60;;;3.50;99.90;;;;;;5149659;27;20038;-46
2023/12/03 01:30:04;;;;;;;6.90;3.20;;;3.40;99.90;;;;;;5148229;27;20088;-48
2023/12/03 01:32:29;;;;;;;4.65;2.78;;;3.40;99.90;;;;;;5148733;27;20030;-49
2023/12/03 01:34:55;;;;;;;5.25;2.88;;;3.30;99.90;;;;;;5148997;27;20018;-49
2023/12/03 01:37:21;;;;;;;5.85;3.10;;;3.30;99.90;;;;;;5148883;27;20034;-49
2023/12/03 01:39:47;;;;;;;4.70;2.90;;;3.30;99.90;;;;;;5148728;27;20308;-49
2023/12/03 01:42:13;;;;;;;5.43;3.10;;;3.30;99.90;;;;;;5147617;27;20292;-49
2023/12/03 01:44:38;;;;;;;4.50;2.95;;;3.20;99.90;;;;;;5148710;27;20038;-49
2023/12/03 01:47:04;;;;;;;4.97;2.97;;;3.20;99.90;;;;;;5148718;27;20027;-49
2023/12/03 01:49:30;;;;;;;4.50;3.10;;;3.10;99.90;;;;;;5148595;27;20086;-49
2023/12/03 01:51:57;;;;;;;5.20;3.03;;;3.10;99.90;;;;;;5147381;27;20072;-46
2023/12/03 01:54:25;;;;;;;6.43;3.25;;;3.10;99.90;;;;;;5147498;27;20042;-46
2023/12/03 01:56:51;;;;;;;6.72;3.50;;;3.00;99.90;;;;;;5130424;27;20092;-46
2023/12/03 01:59:17;;;;;;;5.97;3.38;;;3.00;99.90;;;;;;5148431;27;20027;-47
2023/12/03 02:01:42;;;;;;;4.75;3.35;;;2.90;99.90;;;;;;5147092;27;20289;-47
2023/12/03 02:04:08;;;;;;;6.47;3.40;;;2.90;99.90;;;;;;5148341;27;20326;-48
2023/12/03 02:06:33;;;;;;;6.05;3.33;;;2.80;99.90;;;;;;5146943;27;20335;-48
2023/12/03 02:08:59;;;;;;;7.20;3.47;;;2.70;99.90;;;;;;5148222;27;20034;-47
2023/12/03 02:11:25;;;;;;;4.75;3.10;;;2.70;99.90;;;;;;5147260;27;20058;-48
2023/12/03 02:13:51;;;;;;;9.60;3.50;;;2.70;99.90;;;;;;5146964;27;20076;-48
2023/12/03 02:16:16;;;;;;;7.03;3.53;;;2.70;99.90;;;;;;5147183;27;20168;-46
2023/12/03 02:18:43;;;;;;;6.30;3.38;;;2.60;99.90;;;;;;5148048;27;20023;-45
2023/12/03 02:21:09;;;;;;;6.68;3.45;;;2.60;99.90;;;;;;5148047;27;20230;-47
2023/12/03 02:23:35;;;;;;;5.45;3.30;;;2.60;99.90;;;;;;5129894;27;20023;-47
2023/12/03 02:26:00;;;;;;;5.65;3.42;;;2.50;99.90;;;;;;5147710;27;20067;-65
2023/12/03 02:28:26;;;;;;;8.55;3.80;;;2.50;99.90;;;;;;5147744;27;20180;-45
2023/12/03 02:30:52;;;;;;;5.90;3.50;;;2.50;99.90;;;;;;5147757;27;20023;-45
2023/12/03 02:33:17;;;;;;;6.00;3.47;;;2.50;99.90;;;;;;5147326;27;20027;-45
2023/12/03 02:35:43;;;;;;;6.55;3.55;;;2.40;99.90;;;;;;5147351;27;20023;-46
2023/12/03 02:38:09;;;;;;;8.18;3.65;;;2.40;99.90;;;;;;5147593;27;20067;-46
2023/12/03 02:40:37;;;;;;;8.88;3.95;;;2.30;99.90;;;;;;5147557;27;20037;-45
2023/12/03 02:43:02;;;;;;;8.05;3.97;;;2.30;99.90;;;;;;5146621;27;20214;-46
2023/12/03 02:45:28;;;;;;;8.05;4.45;;;2.20;99.90;;;;;;5147568;27;20091;-45
2023/12/03 02:47:53;;;;;;;8.60;5.25;;;2.20;99.90;;;;;;5146268;27;20034;-45
2023/12/03 02:50:19;;;;;;;6.95;4.38;;;2.20;99.90;;;;;;5146425;27;20102;-45
2023/12/03 02:52:45;;;;;;;9.48;4.75;;;2.10;99.90;;;;;;5147333;27;20075;-45
2023/12/03 02:55:10;;;;;;;7.90;4.70;;;2.10;99.90;;;;;;5147550;27;20023;-46
2023/12/03 02:57:36;;;;;;;7.90;4.80;;;2.10;99.90;;;;;;5146266;27;20051;-46
2023/12/03 03:00:04;;;;;;;7.45;4.70;;;2.10;99.90;;;;;;5147382;27;20162;-46
2023/12/03 03:02:31;;;;;;;6.38;3.95;;;2.00;99.90;;;;;;5146061;27;20026;-46
2023/12/03 03:04:57;;;;;;;6.95;4.22;;;2.00;99.90;;;;;;5146020;27;20042;-45
2023/12/03 03:07:22;;;;;;;7.38;4.30;;;2.00;99.90;;;;;;5146809;27;20377;-45
2023/12/03 03:09:48;;;;;;;6.43;3.65;;;2.00;99.90;;;;;;5147000;27;20042;-46
2023/12/03 03:12:14;;;;;;;6.30;3.90;;;2.00;99.90;;;;;;5146889;27;20031;-45
2023/12/03 03:14:40;;;;;;;7.05;3.50;;;1.90;99.90;;;;;;5146898;27;20292;-45
2023/12/03 03:17:06;;;;;;;5.90;3.47;;;1.90;99.90;;;;;;5147094;27;20034;-45
2023/12/03 03:19:32;;;;;;;11.88;4.07;;;1.90;99.90;;;;;;5146981;27;20035;-45
2023/12/03 03:21:57;;;;;;;6.97;3.50;;;1.90;99.90;;;;;;5146747;27;20292;-45
2023/12/03 03:24:23;;;;;;;4.78;3.17;;;1.90;99.90;;;;;;5146967;27;20318;-45
2023/12/03 03:26:49;;;;;;;6.32;3.28;;;1.80;99.90;;;;;;5147011;27;20292;-45
2023/12/03 03:29:14;;;;;;;4.97;3.47;;;1.80;99.90;;;;;;5146833;27;20038;-46
2023/12/03 03:31:40;;;;;;;6.88;3.63;;;1.80;99.90;;;;;;5147018;27;20023;-46
2023/12/03 03:34:07;;;;;;;5.03;3.28;;;1.70;99.90;;;;;;5146551;28;20023;-46
2023/12/03 03:36:32;;;;;;;6.05;3.28;;;1.70;99.90;;;;;;5146377;28;20023;-46
2023/12/03 03:38:58;;;;;;;5.13;3.28;;;1.70;99.90;;;;;;5145778;28;20045;-46
2023/12/03 03:41:24;;;;;;;6.47;3.40;;;1.70;99.90;;;;;;5146855;28;20356;-46
2023/12/03 03:43:49;;;;;;;5.50;3.47;;;1.70;99.90;;;;;;5146452;28;20019;-46
2023/12/03 03:46:15;;;;;;;4.95;3.05;;;1.70;99.90;;;;;;5146592;28;20082;-47
2023/12/03 03:48:41;;;;;;;7.63;3.67;;;1.70;99.90;;;;;;5146489;28;20035;-47
2023/12/03 03:51:07;;;;;;;7.20;3.40;;;1.70;99.90;;;;;;5146789;28;20038;-46
2023/12/03 03:53:32;;;;;;;5.60;3.42;;;1.70;99.90;;;;;;5145969;27;20019;-46
2023/12/03 03:55:58;;;;;;;7.15;3.50;;;1.60;99.90;;;;;;5150640;27;20058;-47
2023/12/03 03:58:24;;;;;;;4.30;2.95;;;1.60;99.90;;;;;;5150621;27;20030;-46
2023/12/03 04:00:50;;;;;;;5.75;3.28;;;1.60;99.90;;;;;;5149893;27;20053;-46
2023/12/03 04:03:16;;;;;;;6.70;3.40;;;1.60;99.90;;;;;;5150758;27;20035;-47
2023/12/03 04:05:42;;;;;;;9.82;4.78;;;1.60;99.90;;;;;;5149925;27;20181;-46
2023/12/03 04:08:07;;;;;;;12.15;4.70;;;1.60;99.90;;;;;;5150363;27;20055;-45
2023/12/03 04:10:33;;;;;;;8.85;4.93;;;1.60;99.90;;;;;;5150108;27;20046;-46
2023/12/03 04:12:58;;;;;;;12.73;5.20;;;1.60;99.90;;;;;;5150566;27;20034;-48
2023/12/03 04:15:24;;;;;;;9.68;4.72;;;1.70;99.90;;;;;;5149514;27;20102;-48
2023/12/03 04:17:50;;;;;;;9.38;4.57;;;1.80;99.90;;;;;;5150476;27;20031;-47
2023/12/03 04:20:15;;;;;;;6.80;3.58;;;1.80;99.90;;;;;;5150249;27;20031;-48
2023/12/03 04:22:41;;;;;;;5.25;3.45;;;1.90;99.90;;;;;;5150445;27;20303;-47
2023/12/03 04:25:07;;;;;;;6.85;3.30;;;1.90;99.90;;;;;;5149975;27;20349;-47
2023/12/03 04:27:33;;;;;;;6.05;3.80;;;1.80;99.90;;;;;;5150366;27;20023;-49
2023/12/03 04:29:58;;;;;;;6.80;3.95;;;1.80;99.90;;;;;;5150110;27;20027;-47
2023/12/03 04:32:24;;;;;;;6.80;4.20;;;1.90;99.90;;;;;;5150012;27;20027;-49
2023/12/03 04:34:50;;;;;;;6.97;3.55;;;1.90;99.90;;;;;;5150238;27;20019;-48
2023/12/03 04:37:16;;;;;;;7.03;4.35;;;1.90;99.90;;;;;;5149131;27;20023;-48
2023/12/03 04:39:45;;;;;;;7.88;4.50;;;1.90;99.90;;;;;;5149650;27;20069;-46
2023/12/03 04:42:10;;;;;;;7.80;4.15;;;1.90;99.90;;;;;;5149980;27;20302;-46
2023/12/03 04:44:36;;;;;;;7.03;4.15;;;1.90;99.90;;;;;;5150050;27;20054;-48
2023/12/03 04:47:02;;;;;;;7.18;3.70;;;1.90;99.90;;;;;;5149868;27;20092;-49
2023/12/03 04:49:27;;;;;;;6.30;3.88;;;1.80;99.90;;;;;;5149794;27;20038;-46
2023/12/03 04:51:53;;;;;;;6.25;3.80;;;1.80;99.90;;;;;;5149573;27;20082;-47
2023/12/03 04:54:19;;;;;;;6.88;4.00;;;1.80;99.90;;;;;;5149746;27;20031;-49
2023/12/03 04:56:45;;;;;;;6.70;4.18;;;1.80;99.90;;;;;;5148453;27;20018;-47
2023/12/03 04:59:10;;;;;;;6.47;3.80;;;1.80;99.90;;;;;;5149760;27;20038;-46
2023/12/03 05:01:36;;;;;;;5.63;3.55;;;1.70;99.90;;;;;;5149683;27;20234;-46
2023/12/03 05:04:02;;;;;;;6.40;3.42;;;1.80;99.90;;;;;;5149675;27;20019;-45
2023/12/03 05:06:27;;;;;;;7.45;3.70;;;1.80;99.90;;;;;;5147151;27;20035;-46
2023/12/03 05:08:53;;;;;;;6.80;4.05;;;1.80;99.90;;;;;;5149103;27;20063;-46
2023/12/03 05:11:18;;;;;;;6.20;3.88;;;1.80;99.90;;;;;;5149667;27;20023;-46
2023/12/03 05:13:44;;;;;;;5.55;3.40;;;1.90;99.90;;;;;;5149347;27;20023;-49
2023/12/03 05:16:10;;;;;;;5.95;3.55;;;1.80;99.90;;;;;;5149295;27;20033;-47
2023/12/03 05:18:36;;;;;;;6.28;3.35;;;1.80;99.90;;;;;;5131151;27;20342;-48
2023/12/03 05:21:02;;;;;;;6.40;3.15;;;1.80;99.90;;;;;;5149290;27;20057;-48
2023/12/03 05:23:28;;;;;;;5.00;3.10;;;1.80;99.90;;;;;;5150058;27;20170;-47
2023/12/03 05:25:54;;;;;;;6.57;3.42;;;1.80;99.90;;;;;;5149296;27;20023;-48
2023/12/03 05:28:20;;;;;;;4.60;2.55;;;1.80;99.90;;;;;;5147911;27;20015;-48
2023/12/03 05:30:46;;;;;;;6.35;3.38;;;1.80;99.90;;;;;;5149061;27;20035;-48
2023/12/03 05:33:11;;;;;;;5.57;3.38;;;1.80;99.90;;;;;;5149166;27;20273;-47
2023/12/03 05:35:37;;;;;;;8.32;3.95;;;1.70;99.90;;;;;;5147937;27;20027;-47
2023/12/03 05:38:04;;;;;;;4.80;3.38;;;1.80;99.90;;;;;;5149034;27;20177;-48
2023/12/03 05:40:29;;;;;;;5.75;3.28;;;1.70;99.90;;;;;;5148857;27;20027;-47
2023/12/03 05:42:55;;;;;;;5.47;3.17;;;1.70;99.90;;;;;;5148442;27;20050;-48
2023/12/03 05:45:20;;;;;;;5.75;3.45;;;1.70;99.90;;;;;;5148731;27;20073;-48
2023/12/03 05:47:46;;;;;;;7.78;3.63;;;1.70;99.90;;;;;;5149035;27;20062;-46
2023/12/03 05:50:12;;;;;;;4.82;2.90;;;1.70;99.90;;;;;;5148526;27;20023;-46
2023/12/03 05:52:37;;;;;;;5.38;3.60;;;1.70;99.90;;;;;;5147558;27;20086;-48
2023/12/03 05:55:04;;;;;;;5.70;3.65;;;1.60;99.90;;;;;;5149091;27;20169;-47
2023/12/03 05:57:30;;;;;;;5.95;3.50;;;1.60;99.90;;;;;;5148607;27;20030;-47
2023/12/03 05:59:56;;;;;;;7.65;3.30;;;1.50;99.90;;;;;;5148277;27;20035;-45
2023/12/03 06:02:21;;;;;;;5.72;3.28;;;1.50;99.90;;;;;;5148439;27;20020;-46
2023/12/03 06:04:47;;;;;;;6.70;3.30;;;1.40;99.90;;;;;;5147618;27;20094;-45
2023/12/03 06:07:12;;;;;;;5.28;2.97;;;1.40;99.90;;;;;;5148019;27;20108;-45
2023/12/03 06:09:38;;;;;;;5.63;3.20;;;1.40;99.90;;;;;;5148329;27;20217;-47
2023/12/03 06:12:05;;;;;;;5.97;3.05;;;1.30;99.90;;;;;;5148460;27;20189;-46
2023/12/03 06:14:31;;;;;;;5.45;3.15;;;1.30;99.90;;;;;;5148403;27;20030;-47
2023/12/03 06:16:57;;;;;;;5.60;3.15;;;1.20;99.90;;;;;;5147359;27;20046;-45
2023/12/03 06:19:22;;;;;;;5.25;2.58;;;1.20;99.90;;;;;;5148412;27;20273;-46
2023/12/03 06:21:48;;;;;;;5.57;2.78;;;1.10;99.90;;;;;;5147947;27;20035;-48
2023/12/03 06:24:14;;;;;;;4.68;3.17;;;1.10;99.90;;;;;;5147906;27;20096;-47
2023/12/03 06:26:39;;;;;;;4.90;2.97;;;1.10;99.90;;;;;;5148036;27;20019;-46
2023/12/03 06:29:05;;;;;;;5.45;3.35;;;1.10;99.90;;;;;;5147361;27;20027;-46
2023/12/03 06:31:32;;;;;;;6.03;3.78;;;1.10;99.90;;;;;;5129496;27;20088;-46
2023/12/03 06:33:58;;;;;;;6.63;3.50;;;1.10;99.90;;;;;;5147748;27;20023;-47
2023/12/03 06:36:25;;;;;;;6.07;3.28;;;1.20;99.90;;;;;;5146710;27;20059;-46
2023/12/03 06:38:51;;;;;;;4.55;2.90;;;1.10;99.90;;;;;;5147681;27;20104;-46
2023/12/03 06:41:16;;;;;;;5.93;2.90;;;1.20;99.90;;;;;;5148173;27;20027;-46
2023/12/03 06:43:42;;;;;;;5.05;2.80;;;1.20;99.90;;;;;;5148071;27;20027;-45
2023/12/03 06:46:08;;;;;;;5.32;3.00;;;1.20;99.90;;;;;;5147751;27;20100;-46
2023/12/03 06:48:33;;;;;;;4.68;2.90;;;1.20;99.90;;;;;;5146969;27;20189;-45
2023/12/03 06:50:59;;;;;;;5.43;3.35;;;1.20;99.90;;;;;;5147573;27;20058;-46
2023/12/03 06:53:24;;;;;;;6.13;3.33;;;1.10;99.90;;;;;;5146940;27;20039;-45
2023/12/03 06:55:50;;;;;;;5.45;3.13;;;1.10;99.90;;;;;;5147726;27;20019;-49
2023/12/03 06:58:16;;;;;;;6.53;3.85;;;1.20;99.90;;;;;;5147164;27;20031;-47
2023/12/03 07:00:41;;;;;;;5.68;3.63;;;1.20;99.90;;;;;;5147398;27;20094;-46
2023/12/03 07:03:07;;;;;;;7.47;3.33;;;1.30;99.90;;;;;;5147031;27;20289;-49
2023/12/03 07:05:33;;;;;;;6.47;3.72;;;1.30;99.90;;;;;;5147532;27;21448;-47
2023/12/03 07:07:58;;;;;;;5.88;3.25;;;1.30;99.90;;;;;;5147046;27;20204;-47
2023/12/03 07:10:24;;;;;;;6.72;3.40;;;1.30;99.90;;;;;;5147075;27;20229;-47
2023/12/03 07:12:50;;;;;;;6.57;3.20;;;1.40;99.90;;;;;;5146126;27;20038;-46
2023/12/03 07:15:16;;;;;;;5.90;3.20;;;1.40;99.90;;;;;;5147352;27;20031;-49
2023/12/03 07:17:42;;;;;;;4.80;2.83;;;1.40;99.90;;;;;;5146439;27;20031;-47
2023/12/03 07:20:08;;;;;;;5.45;2.85;;;1.40;99.90;;;;;;5146542;27;20088;-47
2023/12/03 07:22:34;;;;;;;4.68;2.97;;;1.30;99.90;;;;;;5146957;27;20095;-47
2023/12/03 07:24:59;;;;;;;5.00;3.03;;;1.30;99.90;;;;;;5147133;27;20019;-48
2023/12/03 07:27:25;;;;;;;4.97;3.15;;;1.30;99.90;;;;;;5147474;27;20031;-47
2023/12/03 07:29:55;;;;;;;6.13;3.05;;;1.30;99.90;;;;;;5146208;27;20084;-46
2023/12/03 07:32:22;;;;;;;5.90;3.30;;;1.40;99.90;;;;;;5146870;27;20140;-46
2023/12/03 07:34:47;;;;;;;4.97;2.83;;;1.40;99.90;;;;;;5146425;28;20216;-46
2023/12/03 07:37:13;;;;;;;5.63;3.03;;;1.40;99.90;;;;;;5147073;27;20062;-47
2023/12/03 07:39:39;;;;;;;4.45;2.88;;;1.40;99.90;;;;;;5146384;28;20143;-46
2023/12/03 07:42:05;;;;;;;5.53;3.50;;;1.50;99.90;;;;;;5146262;28;20246;-46
2023/12/03 07:44:30;;;;;;;7.93;3.50;;;1.50;99.90;;;;;;5145703;28;20039;-47
2023/12/03 07:46:56;;;;;;;7.13;3.47;;;1.50;99.90;;;;;;5147104;28;20291;-46
2023/12/03 07:49:22;;;;;;;8.15;3.67;;;1.60;99.90;;;;;;5145834;28;20058;-45
2023/12/03 07:51:47;;;;;;;6.45;3.28;;;1.60;99.90;;;;;;5145791;28;20035;-46
2023/12/03 07:54:13;;;;;;;6.88;3.50;;;1.60;99.90;;;;;;5145721;28;20075;-46
2023/12/03 07:56:39;;;;;;;7.35;3.75;;;1.70;99.90;;;;;;5146517;28;20129;-49
2023/12/03 07:59:05;;;;;;;10.10;4.68;;;1.70;99.90;;;;;;5146820;28;20039;-47
2023/12/03 08:01:31;;;;;;;10.07;7.18;;;1.80;99.90;;;;;;5146891;28;20169;-46
2023/12/03 08:03:57;;;;;;;8.25;4.82;;;1.80;99.90;;;;;;5146293;28;20031;-47
2023/12/03 08:06:23;;;;;;;8.55;4.68;;;1.80;99.90;;;;;;5146160;28;20177;-46
2023/12/03 08:08:48;;;;;;;6.97;4.03;;;1.80;99.90;;;;;;5145362;28;20042;-46
2023/12/03 08:11:14;;;;;;;7.60;4.18;;;1.80;99.90;;;;;;5146461;28;20087;-46
2023/12/03 08:13:40;;;;;;;6.55;3.88;;;1.80;99.90;;;;;;5145151;28;20038;-47
2023/12/03 08:16:06;;;;;;;7.88;4.03;;;1.80;99.90;;;;;;5146355;28;20030;-46
2023/12/03 08:18:32;;;;;;;7.93;4.05;;;1.80;99.90;;;;;;5146245;28;20051;-47
2023/12/03 08:20:58;;;;;;;7.43;4.03;;;1.80;99.90;;;;;;5146740;28;20034;-46
2023/12/03 08:23:23;;;;;;;7.95;3.92;;;1.80;99.90;;;;;;5128211;28;20045;-46
2023/12/03 08:25:49;;;;;;;5.78;3.60;;;1.90;99.90;;;;;;5145349;28;20288;-47
2023/12/03 08:28:15;;;;;;;8.57;3.85;;;1.90;99.90;;;;;;5146083;28;20039;-46
2023/12/03 08:30:41;;;;;;;8.25;3.78;;;2.00;99.90;;;;;;5144977;28;20023;-47
2023/12/03 08:33:06;;;;;;;6.72;4.20;;;2.00;99.90;;;;;;5146668;28;20023;-46
2023/12/03 08:35:32;;;;;;;7.43;4.78;;;2.00;99.90;;;;;;5146793;28;20053;-45
2023/12/03 08:37:58;;;;;;;8.27;4.55;;;2.00;99.90;;;;;;5146250;28;20084;-47
2023/12/03 08:40:23;;;;;;;7.30;4.05;;;2.10;99.90;;;;;;5146661;27;20042;-47
2023/12/03 08:42:49;;;;;;;6.47;3.70;;;2.10;99.90;;;;;;5149835;27;20050;-46
2023/12/03 08:45:15;;;;;;;8.48;4.15;;;2.10;99.90;;;;;;5149795;27;20029;-46
2023/12/03 08:47:41;;;;;;;7.90;3.90;;;2.20;99.90;;;;;;5149504;27;20038;-46
2023/12/03 08:50:07;;;;;;;5.57;3.53;;;2.20;99.90;;;;;;5148592;27;20027;-47
2023/12/03 08:52:33;;;;;;;5.75;4.00;;;2.20;99.90;;;;;;5149638;27;20043;-46
2023/12/03 08:54:59;;;;;;;6.50;4.03;;;2.20;99.90;;;;;;5149644;27;20027;-52
2023/12/03 08:57:25;;;;;;;5.88;3.42;;;2.30;99.90;;;;;;5148300;27;20343;-51
2023/12/03 08:59:53;;;;;;;6.90;4.45;;;2.20;99.90;;;;;;5149631;27;20035;-47
2023/12/03 09:02:22;;;;;;;5.07;2.90;;;2.30;99.90;;;;;;5148600;27;20090;-47
2023/12/03 09:04:50;;;;;;;6.40;3.75;;;2.30;99.90;;;;;;5148808;27;20035;-47
2023/12/03 09:07:15;;;;;;;5.50;3.40;;;2.30;99.90;;;;;;5149126;27;20054;-47
2023/12/03 09:09:42;;;;;;;6.55;3.72;;;2.40;99.90;;;;;;5149596;27;20027;-46
2023/12/03 09:12:08;;;;;;;8.50;4.70;;;2.40;99.90;;;;;;5149324;27;20189;-46
2023/12/03 09:14:34;;;;;;;5.45;3.47;;;2.50;99.90;;;;;;5149155;27;20086;-46
2023/12/03 09:17:00;;;;;;;7.63;4.35;;;2.50;99.90;;;;;;5149195;27;20031;-47
2023/12/03 09:19:25;;;;;;;8.02;4.07;;;2.50;99.90;;;;;;5148125;27;20245;-46
2023/12/03 09:21:51;;;;;;;9.55;4.38;;;2.50;99.90;;;;;;5148925;27;20173;-47
2023/12/03 09:24:17;;;;;;;9.23;7.15;;;2.60;99.90;;;;;;5149025;27;20038;-46
2023/12/03 09:26:46;;;;;;;8.80;4.70;;;2.60;99.90;;;;;;5148568;27;20030;-46
2023/12/03 09:29:12;;;;;;;7.93;4.30;;;2.60;99.90;;;;;;5148772;27;20023;-49
2023/12/03 09:31:41;;;;;;;13.45;6.00;;;2.70;99.90;;;;;;5148570;27;20307;-46
2023/12/03 09:34:07;;;;;;;18.88;9.35;;;2.60;99.90;;;;;;5148657;27;20046;-49
2023/12/03 09:36:33;;;;;;;16.58;9.20;;;2.70;99.90;;;;;;5147764;27;20015;-48
2023/12/03 09:39:00;;;;;;;15.30;8.10;;;2.70;99.90;;;;;;5148893;27;20031;-45
2023/12/03 09:41:26;;;;;;;14.73;8.48;;;2.70;99.90;;;;;;5147817;27;20106;-46
2023/12/03 09:43:54;;;;;;;10.50;6.10;;;2.70;99.90;;;;;;5147643;27;20185;-49
2023/12/03 09:46:19;;;;;;;8.15;4.75;;;2.70;99.90;;;;;;5148435;27;20038;-47
2023/12/03 09:48:45;;;;;;;7.70;4.53;;;2.70;99.90;;;;;;5130452;27;20094;-46
2023/12/03 09:51:12;;;;;;;7.78;4.47;;;2.70;99.90;;;;;;5147995;27;20016;-49
2023/12/03 09:53:47;;;;;;;7.22;4.35;;;2.70;99.90;;;;;;5147869;27;20031;-47
2023/12/03 09:56:13;;;;;;;8.35;4.03;;;2.80;99.90;;;;;;5147315;27;20334;-45
2023/12/03 09:58:39;;;;;;;10.55;5.63;;;2.90;99.90;;;;;;5146933;27;20027;-47
2023/12/03 10:01:05;;;;;;;11.52;6.32;;;2.90;99.90;;;;;;5148252;27;20015;-44
2023/12/03 10:03:31;;;;;;;9.05;5.22;;;2.90;99.90;;;;;;5148247;27;20241;-47
2023/12/03 10:05:57;;;;;;;6.20;4.82;;;3.00;99.90;;;;;;5147233;27;20030;-44
2023/12/03 10:08:23;;;;;;;8.00;4.55;;;3.00;99.90;;;;;;5146935;27;20054;-44
2023/12/03 10:10:56;;;;;;;6.53;4.72;;;3.10;99.90;;;;;;5148392;27;20043;-43
2023/12/03 10:13:22;;;;;;;8.52;5.03;;;3.20;99.90;;;;;;5148616;27;20030;-44
2023/12/03 10:15:48;;;;;;;9.30;5.07;;;3.10;99.90;;;;;;5147010;27;20027;-44
2023/12/03 10:18:15;;;;;;;7.63;4.90;;;3.10;99.90;;;;;;5129927;27;20031;-44
2023/12/03 10:20:41;;;;;;;7.10;4.18;;;3.20;99.90;;;;;;5147795;27;20322;-44
2023/12/03 10:23:14;;;;;;;7.13;3.65;;;3.30;99.90;;;;;;5147728;27;20035;-44
2023/12/03 10:25:40;;;;;;;4.28;3.03;;;3.40;99.90;;;;;;5147959;27;20019;-43
2023/12/03 10:28:06;;;;;;;5.32;3.40;;;3.40;99.90;;;;;;5147688;27;20051;-44
2023/12/03 10:30:33;;;;;;;7.10;4.03;;;3.50;99.90;;;;;;5147181;27;20035;-43
2023/12/03 10:32:59;;;;;;;6.90;3.72;;;3.50;99.90;;;;;;5146708;27;20039;-43
2023/12/03 10:35:25;;;;;;;7.78;3.67;;;3.60;99.90;;;;;;5147659;27;20022;-44
2023/12/03 10:37:51;;;;;;;7.65;4.70;;;3.70;99.90;;;;;;5146228;27;20181;-44
2023/12/03 10:40:20;;;;;;;9.93;5.18;;;3.70;99.90;;;;;;5146407;27;20069;-43
2023/12/03 10:42:46;;;;;;;7.90;4.32;;;3.70;99.90;;;;;;5147634;27;20031;-44
2023/12/03 10:45:13;;;;;;;8.77;3.88;;;3.80;99.90;;;;;;5147833;27;20054;-44
2023/12/03 10:47:39;;;;;;;8.20;4.45;;;3.80;99.90;;;;;;5146869;27;20139;-44
2023/12/03 10:50:07;;;;;;;8.20;4.47;;;3.80;99.90;;;;;;5146841;27;20026;-44
2023/12/03 10:52:35;;;;;;;11.60;5.20;;;3.90;99.90;;;;;;5147244;27;20035;-44
2023/12/03 10:55:01;;;;;;;9.80;4.60;;;3.90;99.90;;;;;;5147197;27;20030;-44
2023/12/03 10:57:29;;;;;;;10.38;5.55;;;4.00;99.90;;;;;;5146072;27;20023;-44
2023/12/03 11:00:05;;;;;;;6.82;3.80;;;4.00;99.90;;;;;;5147120;27;20054;-45
2023/12/03 11:02:44;;;;;;;8.73;3.65;;;4.10;99.90;;;;;;5145968;27;20094;-44
2023/12/03 11:05:11;;;;;;;6.65;3.67;;;4.10;99.90;;;;;;5145973;27;20039;-44
2023/12/03 11:07:37;;;;;;;8.05;5.15;;;4.20;99.90;;;;;;5146719;27;20235;-44
2023/12/03 11:10:03;;;;;;;8.13;4.05;;;4.30;99.90;;;;;;5146912;27;20048;-44
2023/12/03 11:12:29;;;;;;;23.95;13.48;;;4.30;99.90;;;;;;5145829;27;20136;-45
2023/12/03 11:14:55;;;;;;;19.52;10.70;;;4.30;99.90;;;;;;5146044;27;20023;-44
2023/12/03 11:17:32;;;;;;;9.63;5.97;;;4.30;99.90;;;;;;5147266;27;20031;-47
2023/12/03 11:20:05;;;;;;;8.80;4.45;;;4.40;99.90;;;;;;5146795;27;20087;-47
2023/12/03 11:22:39;;;;;;;8.20;4.72;;;4.40;99.90;;;;;;5145853;27;20027;-46
2023/12/03 11:25:13;;;;;;;11.50;5.63;;;4.40;99.90;;;;;;5146720;27;20082;-45
2023/12/03 11:27:42;;;;;;;11.95;6.00;;;4.50;99.90;;;;;;5145632;27;20034;-44
2023/12/03 11:30:08;;;;;;;10.23;5.47;;;4.50;99.90;;;;;;5146933;27;20035;-44
2023/12/03 11:32:34;;;;;;;5.45;3.00;;;4.50;99.90;;;;;;5146674;27;20042;-44
2023/12/03 11:35:01;;;;;;;7.53;3.63;;;4.60;99.90;;;;;;5128553;28;20068;-44
2023/12/03 11:37:27;;;;;;;7.18;4.07;;;4.60;99.90;;;;;;5145283;27;20340;-45
2023/12/03 11:39:56;;;;;;;14.95;7.25;;;4.60;99.90;;;;;;5146631;27;20185;-45
2023/12/03 11:42:25;;;;;;;15.32;7.13;;;4.60;99.90;;;;;;5145284;28;20389;-47
2023/12/03 11:45:18;;;;;;;10.93;5.55;;;4.60;99.90;;;;;;5146512;28;20031;-46
2023/12/03 11:48:03;;;;;;;14.55;8.70;;;4.70;99.90;;;;;;5146343;27;20019;-47
2023/12/03 11:50:30;;;;;;;26.63;15.40;;;4.60;99.90;;;;;;5145495;28;20062;-45
2023/12/03 11:52:55;;;;;;;25.92;15.15;;;4.60;99.90;;;;;;5146275;28;20058;-45
2023/12/03 11:55:21;;;;;;;19.10;10.95;;;4.60;99.90;;;;;;5145846;28;20015;-45
2023/12/03 11:57:47;;;;;;;19.52;12.15;;;4.70;99.90;;;;;;5128698;28;20039;-46
2023/12/03 12:00:13;;;;;;;19.75;12.50;;;4.70;99.90;;;;;;5145920;28;20229;-44
2023/12/03 12:02:38;;;;;;;22.58;12.07;;;4.70;99.90;;;;;;5145271;28;20324;-47
2023/12/03 12:05:04;;;;;;;22.00;11.70;;;4.70;99.90;;;;;;5146408;28;20054;-48
2023/12/03 12:07:30;;;;;;;19.23;11.05;;;4.80;99.90;;;;;;5145028;28;20055;-48
2023/12/03 12:09:55;;;;;;;22.40;11.82;;;4.80;99.90;;;;;;5146028;28;20140;-46
2023/12/03 12:12:21;;;;;;;17.20;9.57;;;4.90;99.90;;;;;;5146159;28;20035;-45
2023/12/03 12:14:47;;;;;;;18.27;11.57;;;4.90;99.90;;;;;;5146996;27;20033;-44
2023/12/03 12:17:13;;;;;;;18.77;10.38;;;4.90;99.90;;;;;;5150218;27;20027;-48
2023/12/03 12:19:49;;;;;;;17.20;9.88;;;4.90;99.90;;;;;;5149827;27;20098;-47
2023/12/03 12:22:16;;;;;;;13.43;6.90;;;4.90;99.90;;;;;;5150074;27;20239;-48
2023/12/03 12:24:42;;;;;;;7.43;4.65;;;5.00;99.90;;;;;;5149630;27;20094;-46
2023/12/03 12:27:08;;;;;;;9.63;4.78;;;5.00;99.90;;;;;;5150108;27;20045;-47
2023/12/03 12:29:34;;;;;;;7.63;4.30;;;5.00;99.90;;;;;;5131776;27;20039;-48
2023/12/03 12:32:00;;;;;;;10.23;3.65;;;5.10;99.90;;;;;;5148745;27;20031;-47
2023/12/03 12:34:27;;;;;;;7.63;3.97;;;5.10;99.90;;;;;;5149627;27;20057;-46
2023/12/03 12:37:02;;;;;;;7.80;4.57;;;5.10;99.90;;;;;;5149385;27;20059;-46
2023/12/03 12:39:28;;;;;;;8.57;4.03;;;5.10;99.90;;;;;;5150359;27;20039;-48
2023/12/03 12:41:57;;;;;;;5.78;2.70;;;5.10;99.90;;;;;;5148782;27;20178;-45
2023/12/03 12:44:41;;;;;;;3.85;2.38;;;5.10;99.90;;;;;;5148709;27;20090;-46
2023/12/03 12:47:07;;;;;;;3.78;2.50;;;5.20;99.90;;;;;;5149658;27;20127;-47
2023/12/03 12:49:33;;;;;;;4.22;2.30;;;5.20;99.90;;;;;;5149544;27;20043;-46